默认 日期 大小 文件数 浏览量 最新下载 xml
com sex磁力链接相关资源由用户搜索指令自动获取,结果来源于网络,本站不存储任何资料,亦不承担任何责任,请于24小时内删除,搜索到7050个磁力,显示前4000条数据,用时70ms。
    {"Screen.jpg": 466481, "Poster 1.jpg": 120570, "Poster 2.jpg": 111532, "TeensLikeItBig.com - Pepper Foxxx and Dani Jensen (Reaching a New Way To Sex).wmv": 486940706}
创建时间: 2018-12-31 00:40:57 大小:465.05 MB 文件数量:4 热度:8 最近下载:2024-08-02 11:45:02
    {"www.torrenting.com.txt": 83, "Downloaded from [ www.torrenting.com ].txt": 83, "Masters.of.Sex.S02E05.480p.HDTV.x264-mSD.mkv": 191989985, "Masters.of.Sex.S02E05.480p.HDTV.x264-mSD.nfo": 1014}
创建时间: 2018-12-31 01:09:43 大小:183.1 MB 文件数量:4 热度:5 最近下载:2023-04-20 13:50:07
    {"01.jpg": 290754, "02.jpg": 545875, "03.jpg": 492681, "04.jpg": 455877, "05.jpg": 567218, "06.jpg": 530750, "07.jpg": 587429, "08.jpg": 549408, "09.jpg": 720589, "10.jpg": 595971, "11.jpg": 631635, "12.jpg": 589471, "13.jpg": 526755, "14.jpg": 486791, "15 ...
创建时间: 2018-12-31 02:00:53 大小:7.76 MB 文件数量:16 热度:27 最近下载:2025-08-02 00:02:23
    {"www.Torrenting.com.txt": 382, "First Read This Guide.txt": 382, "How.Sex.Changed.the.World.S01E06.Superheroes.of.Sex.480p.HDTV.x264-mSD.mkv": 270810110, "How.Sex.Changed.the.World.S01E06.Superheroes.of.Sex.480p.HDTV.x264-mSD.nfo": 1204}
创建时间: 2018-12-31 04:53:11 大小:258.27 MB 文件数量:4 热度:7 最近下载:2025-08-03 00:19:02
    {"Golden Shower Girls 2 XXX [DVDRiP][Sado-All Sex].www.lokotorrents.com[CD1].avi": 732518400, "Golden Shower Girls 2 XXX [DVDRiP][Sado-All Sex].www.lokotorrents.com[CD2].avi": 734134272}
创建时间: 2018-12-31 05:35:53 大小:1.37 GB 文件数量:2 热度:5 最近下载:2023-04-20 20:50:05
    {"Cum Buckets 8 [CD1][DVDRIP][All Sex][.www.lokotorrents.com].avi": 725880832, "Cum Buckets 8 [CD2][DVDRIP][All Sex][.www.lokotorrents.com].avi": 725176320}
创建时间: 2018-12-31 11:28:24 大小:1.35 GB 文件数量:2 热度:12 最近下载:2024-02-16 00:03:02
    {"young.sex.crazed.nurses.2a.avi": 734199808, "young.sex.crazed.nurses.2b.avi": 735129600}
创建时间: 2018-12-31 12:05:42 大小:1.37 GB 文件数量:2 热度:10 最近下载:2025-03-17 09:20:02
    {"Playtime For Perverts 2 XXX [CD1][DVDRIP][All Sex][www.lokotorrents.com].avi": 731762688, "Playtime For Perverts 2 XXX [CD2][DVDRIP][All Sex][www.lokotorrents.com].avi": 735057920}
创建时间: 2018-12-31 23:32:36 大小:1.37 GB 文件数量:2 热度:5 最近下载:2023-04-21 11:00:06
    ... ": {"sinslife.16.11.07.gopro.sex.tour.cadence.lux-sample.mp4 ... www.torrenting.com.txt": 73, "sinslife.16.11.07.gopro.sex.tour ... , "sinslife.16.11.07.gopro.sex.tour.cadence.lux.nfo": 5193 ... , "sinslife.16.11.07.gopro.sex.tour.cadence.lux.sfv": 3068}
创建时间: 2019-01-01 00:31:43 大小:2.46 GB 文件数量:5 热度:21 最近下载:2025-03-21 02:36:01
    {"preteenhub.com The Largest Preteens Community": 1024, "SEX japan preteen 10yo Toddler Girl eurololita 9yo tori.jpg": 20471, "SEX japan preteen 10yo Toddler Girl eurololita 9yo tori.mkv": 470857444}
创建时间: 2019-01-01 02:55:15 大小:449.07 MB 文件数量:3 热度:36 最近下载:2025-08-15 12:35:02
    {"preteenhub.com <-- please visit The Largest pthc ... speedo masha-day lolimania family sex.jpg": 16251, "12 yo boy ... speedo masha-day lolimania family sex.mkv": 462824802}
创建时间: 2019-01-01 03:53:53 大小:441.4 MB 文件数量:3 热度:40 最近下载:2025-08-13 13:57:02
    ... Sex.Tape.[aspweblog.com].wmv": 37111598, "screens.Homemade.Celeb.Chyna.Sex.Tape.[aspweblog.com ... Homemade.Celeb.Mimi.MacPherson.Sex.Tap.[aspweblog.com].mpeg": 58628100, "screens ... Homemade.Celeb.Severina.Vuckovic.Sex.Tape.[aspweblog.com].avi": 80982016, "screens ...
创建时间: 2019-01-01 08:10:54 大小:1.81 GB 文件数量:41 热度:14 最近下载:2023-04-22 00:50:12
    ... Lin) XXX [DVDRip][All Sex][www.sexotorrent.com][CD1].avi": 733220864, "Innocence ... (Evelyn Lin) XXX [DVDRip][All Sex][www.sexotorrent.com][CD2].avi": 733370368}
创建时间: 2019-01-01 08:26:51 大小:1.37 GB 文件数量:7 热度:62 最近下载:2025-10-04 02:02:25
    {"preteenhub.com <-- please visit The Largest pthc Community": 1397, "SEX japan preteen 10yo Toddler Girl eurololita 9yo tori.jpg": 10995, "SEX japan preteen 10yo Toddler Girl eurololita 9yo tori.mkv": 717080435}
创建时间: 2019-01-01 10:10:36 大小:683.87 MB 文件数量:3 热度:44 最近下载:2025-04-09 11:20:01
    ... And Fuck Me Daddy Virtual Sex Session Com SD AdultKinG.mp4": 180985152}
创建时间: 2019-01-01 13:11:27 大小:172.6 MB 文件数量:5 热度:20 最近下载:2025-03-27 05:45:01
    {"Anal Junkies On Cock 2 [CD1][DVDRIP][All Sex][.www.lokotorrents.com].avi": 732733440, "Anal Junkies On Cock 2 [CD2][DVDRIP][All Sex][.www.lokotorrents.com].avi": 725770240}
创建时间: 2019-01-01 16:27:44 大小:1.36 GB 文件数量:2 热度:9 最近下载:2025-02-16 04:02:02
    {"www.Torrenting.com.txt": 382, "First Read This Guide.txt": 382, "How.Sex.Changed.the.World.S01E08.Extreme.Sex.HDTV.XviD-AFG.avi": 372252032, "How.Sex.Changed.the.World.S01E08.Extreme.Sex.HDTV.XviD-AFG.nfo": 470}
创建时间: 2019-01-01 17:04:05 大小:355.01 MB 文件数量:4 热度:9 最近下载:2025-08-04 21:53:09
    {"www.Jalsatime.net.jpg": 58117, "For More Free Downloads.url": 130, "Desi College Hot Couple Home Made Sex Scandal Full 1 hr Video - Jalsatime.com.mp4": 224211955}
创建时间: 2019-01-01 17:48:01 大小:213.88 MB 文件数量:3 热度:12 最近下载:2025-03-21 22:20:03
    {"preteenhub.com The Largest Preteens Community": 1797, "SEX japan preteen 10yo Toddler Girl eurololita 9yo tori.jpg": 15366, "SEX japan preteen 10yo Toddler Girl eurololita 9yo tori.mkv": 692878959}
创建时间: 2019-01-01 18:28:20 大小:660.8 MB 文件数量:3 热度:52 最近下载:2025-08-07 01:02:15
    {"untitled.jpg": 120961, "spe064_s04_1080.mp4": 587526077, "spe064_s04_1080.mp4_thumbs_[2012.12.16_01.09.04].jpg": 513585}
创建时间: 2019-01-01 18:28:50 大小:560.91 MB 文件数量:3 热度:12 最近下载:2025-01-14 17:49:04